Terminal Aerodrome Forecast
Issued by NWS

Home | Current Version | Previous Version | Graphics & Text | Print | Product List | Glossary On
Versions: 1 2 3 4 5 6 7 8 9 10 11 12 13 14 15
000
FTUS43 KBIS 242000 AAA
TAFMOT
TAF AMD
KMOT 242043Z 2421/2518 VRB06KT 1SM -SN BR OVC005
     FM250000 35011KT 3SM -SN BR OVC007
     FM250900 35009KT P6SM OVC015=

USA.gov is the U.S. government's official web portal to all federal, state and local government web resources and services.